THY110 LTAC-LTFM
Flight info
| Callsign | THY110 |
|---|---|
| Flight time | 0h 47m |
| Altitude | 28000 |
| Route | YAVRU1D/21R YAVRU A4 ERSEN |
| Aircraft | A21N/M-SDE3FGHIRWY/LB1 |
Departure
| Time | 2026-05-06 20:35 |
|---|---|
| Airport | Esenboğa International Airport (LTAC) |
Arrival
| Time | 2026-05-06 21:22 |
|---|---|
| Airport | İstanbul Airport (LTFM) |
| Time | Latitude | Longitude | Altitude | Speed | Heading |
|---|---|---|---|---|---|
| 2026-05-06 20:09 | 40.11631 | 32.99165 | 3128 ft | 0 kts | 151° |
| 2026-05-06 20:19 | 40.11643 | 32.99157 | 3128 ft | 2 kts | 152° |
| 2026-05-06 20:19 | 40.11656 | 32.99147 | 3127 ft | 2 kts | 152° |
| 2026-05-06 20:19 | 40.11665 | 32.99141 | 3127 ft | 1 kts | 152° |
| 2026-05-06 20:20 | 40.11676 | 32.99129 | 3127 ft | 2 kts | 115° |
| 2026-05-06 20:20 | 40.11680 | 32.99109 | 3127 ft | 2 kts | 81° |
| 2026-05-06 20:20 | 40.11677 | 32.99098 | 3126 ft | 1 kts | 60° |
| 2026-05-06 20:20 | 40.11673 | 32.99091 | 3126 ft | 0 kts | 60° |
| 2026-05-06 20:24 | 40.11674 | 32.99091 | 3127 ft | 0 kts | 60° |
| 2026-05-06 20:24 | 40.11682 | 32.99110 | 3127 ft | 4 kts | 57° |
| 2026-05-06 20:24 | 40.11718 | 32.99133 | 3128 ft | 6 kts | 358° |
| 2026-05-06 20:25 | 40.11763 | 32.99106 | 3127 ft | 8 kts | 317° |
| 2026-05-06 20:25 | 40.11814 | 32.99056 | 3126 ft | 10 kts | 341° |
| 2026-05-06 20:25 | 40.11880 | 32.99075 | 3126 ft | 9 kts | 32° |
| 2026-05-06 20:25 | 40.11935 | 32.99126 | 3127 ft | 9 kts | 37° |
| 2026-05-06 20:26 | 40.11988 | 32.99178 | 3128 ft | 9 kts | 37° |
| 2026-05-06 20:26 | 40.12043 | 32.99230 | 3129 ft | 10 kts | 37° |
| 2026-05-06 20:26 | 40.12102 | 32.99287 | 3129 ft | 10 kts | 36° |
| 2026-05-06 20:26 | 40.12165 | 32.99348 | 3129 ft | 11 kts | 36° |
| 2026-05-06 20:27 | 40.12225 | 32.99403 | 3131 ft | 9 kts | 36° |
| 2026-05-06 20:27 | 40.12280 | 32.99455 | 3132 ft | 9 kts | 35° |
| 2026-05-06 20:27 | 40.12338 | 32.99508 | 3132 ft | 10 kts | 35° |
| 2026-05-06 20:27 | 40.12394 | 32.99561 | 3134 ft | 9 kts | 37° |
| 2026-05-06 20:28 | 40.12442 | 32.99609 | 3135 ft | 8 kts | 38° |
| 2026-05-06 20:28 | 40.12493 | 32.99659 | 3135 ft | 9 kts | 37° |
| 2026-05-06 20:28 | 40.12532 | 32.99697 | 3135 ft | 10 kts | 37° |
| 2026-05-06 20:28 | 40.12592 | 32.99755 | 3135 ft | 11 kts | 36° |
| 2026-05-06 20:29 | 40.12619 | 32.99781 | 3135 ft | 11 kts | 36° |
| 2026-05-06 20:29 | 40.12685 | 32.99845 | 3135 ft | 12 kts | 36° |
| 2026-05-06 20:29 | 40.12755 | 32.99910 | 3135 ft | 12 kts | 36° |
| 2026-05-06 20:29 | 40.12828 | 32.99978 | 3134 ft | 13 kts | 36° |
| 2026-05-06 20:30 | 40.12899 | 33.00046 | 3136 ft | 12 kts | 36° |
| 2026-05-06 20:30 | 40.13018 | 33.00158 | 3140 ft | 8 kts | 36° |
| 2026-05-06 20:30 | 40.13068 | 33.00205 | 3141 ft | 9 kts | 36° |
| 2026-05-06 20:31 | 40.13124 | 33.00259 | 3141 ft | 10 kts | 36° |
| 2026-05-06 20:31 | 40.13185 | 33.00317 | 3141 ft | 11 kts | 36° |
| 2026-05-06 20:31 | 40.13249 | 33.00380 | 3140 ft | 11 kts | 37° |
| 2026-05-06 20:31 | 40.13318 | 33.00446 | 3140 ft | 12 kts | 36° |
| 2026-05-06 20:32 | 40.13397 | 33.00522 | 3140 ft | 15 kts | 37° |
| 2026-05-06 20:32 | 40.13487 | 33.00609 | 3140 ft | 16 kts | 36° |
| 2026-05-06 20:32 | 40.13585 | 33.00702 | 3140 ft | 18 kts | 36° |
| 2026-05-06 20:32 | 40.13692 | 33.00803 | 3140 ft | 19 kts | 36° |
| 2026-05-06 20:33 | 40.13799 | 33.00905 | 3140 ft | 18 kts | 36° |
| 2026-05-06 20:33 | 40.13902 | 33.01002 | 3140 ft | 18 kts | 36° |
| 2026-05-06 20:33 | 40.14010 | 33.01078 | 3141 ft | 17 kts | 6° |
| 2026-05-06 20:33 | 40.14098 | 33.01002 | 3138 ft | 16 kts | 294° |
| 2026-05-06 20:34 | 40.14149 | 33.00861 | 3135 ft | 15 kts | 307° |
| 2026-05-06 20:34 | 40.14211 | 33.00756 | 3132 ft | 14 kts | 304° |
| 2026-05-06 20:34 | 40.14181 | 33.00655 | 3131 ft | 13 kts | 216° |
| 2026-05-06 20:34 | 40.14054 | 33.00536 | 3131 ft | 50 kts | 216° |
| 2026-05-06 20:35 | 40.13560 | 33.00066 | 3128 ft | 122 kts | 216° |
| 2026-05-06 20:35 | 40.12719 | 32.99263 | 3177 ft | 171 kts | 216° |
| 2026-05-06 20:35 | 40.11769 | 32.98342 | 3820 ft | 171 kts | 216° |
| 2026-05-06 20:35 | 40.10824 | 32.97413 | 4521 ft | 174 kts | 217° |
| 2026-05-06 20:36 | 40.09879 | 32.96476 | 5240 ft | 173 kts | 217° |
| 2026-05-06 20:36 | 40.08892 | 32.95492 | 5746 ft | 187 kts | 216° |
| 2026-05-06 20:36 | 40.07816 | 32.94452 | 6225 ft | 202 kts | 214° |
| 2026-05-06 20:36 | 40.06599 | 32.93385 | 6697 ft | 218 kts | 212° |
| 2026-05-06 20:37 | 40.05285 | 32.92236 | 7141 ft | 237 kts | 213° |
| 2026-05-06 20:37 | 40.03870 | 32.90958 | 7578 ft | 256 kts | 215° |
| 2026-05-06 20:37 | 40.02621 | 32.89354 | 8403 ft | 260 kts | 239° |
| 2026-05-06 20:37 | 40.02118 | 32.87108 | 9255 ft | 263 kts | 268° |
| 2026-05-06 20:38 | 40.02487 | 32.84753 | 9881 ft | 275 kts | 296° |
| 2026-05-06 20:38 | 40.03592 | 32.82679 | 10345 ft | 291 kts | 308° |
| 2026-05-06 20:38 | 40.04876 | 32.80539 | 10778 ft | 309 kts | 308° |
| 2026-05-06 20:38 | 40.06236 | 32.78232 | 11189 ft | 327 kts | 307° |
| 2026-05-06 20:39 | 40.07641 | 32.75808 | 11557 ft | 343 kts | 307° |
| 2026-05-06 20:39 | 40.09091 | 32.73279 | 12188 ft | 351 kts | 307° |
| 2026-05-06 20:39 | 40.10535 | 32.70748 | 12973 ft | 352 kts | 307° |
| 2026-05-06 20:39 | 40.12004 | 32.68172 | 13742 ft | 354 kts | 307° |
| 2026-05-06 20:40 | 40.13473 | 32.65596 | 14445 ft | 357 kts | 307° |
| 2026-05-06 20:40 | 40.14941 | 32.63016 | 15149 ft | 359 kts | 307° |
| 2026-05-06 20:40 | 40.16447 | 32.60367 | 15852 ft | 361 kts | 308° |
| 2026-05-06 20:40 | 40.17942 | 32.57740 | 16530 ft | 364 kts | 308° |
| 2026-05-06 20:41 | 40.19481 | 32.55107 | 17171 ft | 366 kts | 310° |
| 2026-05-06 20:41 | 40.21129 | 32.52610 | 17823 ft | 367 kts | 314° |
| 2026-05-06 20:41 | 40.22910 | 32.50244 | 18435 ft | 369 kts | 317° |
| 2026-05-06 20:41 | 40.24790 | 32.47909 | 19045 ft | 371 kts | 318° |
| 2026-05-06 20:42 | 40.26664 | 32.45604 | 19624 ft | 373 kts | 318° |
| 2026-05-06 20:42 | 40.28563 | 32.43271 | 20197 ft | 375 kts | 318° |
| 2026-05-06 20:42 | 40.30464 | 32.40928 | 20758 ft | 377 kts | 319° |
| 2026-05-06 20:42 | 40.32368 | 32.38579 | 21294 ft | 380 kts | 319° |
| 2026-05-06 20:43 | 40.34276 | 32.36221 | 21818 ft | 382 kts | 319° |
| 2026-05-06 20:43 | 40.36215 | 32.33820 | 22342 ft | 383 kts | 318° |
| 2026-05-06 20:43 | 40.38151 | 32.31419 | 22846 ft | 385 kts | 318° |
| 2026-05-06 20:43 | 40.40096 | 32.29008 | 23339 ft | 387 kts | 318° |
| 2026-05-06 20:44 | 40.42046 | 32.26587 | 23804 ft | 389 kts | 319° |
| 2026-05-06 20:44 | 40.44016 | 32.24141 | 24269 ft | 391 kts | 319° |
| 2026-05-06 20:44 | 40.45900 | 32.21555 | 24692 ft | 396 kts | 312° |
| 2026-05-06 20:44 | 40.47499 | 32.18576 | 25120 ft | 401 kts | 304° |
| 2026-05-06 20:45 | 40.48757 | 32.15302 | 25537 ft | 407 kts | 296° |
| 2026-05-06 20:45 | 40.49817 | 32.11848 | 25940 ft | 410 kts | 295° |
| 2026-05-06 20:45 | 40.50850 | 32.08344 | 26322 ft | 412 kts | 295° |
| 2026-05-06 20:45 | 40.51880 | 32.04830 | 26698 ft | 415 kts | 295° |
| 2026-05-06 20:46 | 40.52908 | 32.01326 | 27066 ft | 417 kts | 295° |
| 2026-05-06 20:46 | 40.53965 | 31.97732 | 27414 ft | 419 kts | 295° |
| 2026-05-06 20:46 | 40.55009 | 31.94185 | 27746 ft | 422 kts | 295° |
| 2026-05-06 20:46 | 40.56074 | 31.90569 | 28062 ft | 424 kts | 295° |
| 2026-05-06 20:47 | 40.57135 | 31.86963 | 28085 ft | 424 kts | 295° |
| 2026-05-06 20:47 | 40.59108 | 31.79705 | 28086 ft | 425 kts | 292° |
| 2026-05-06 20:48 | 40.60948 | 31.72286 | 28098 ft | 425 kts | 292° |
| 2026-05-06 20:48 | 40.62767 | 31.64920 | 28093 ft | 426 kts | 292° |
| 2026-05-06 20:49 | 40.64587 | 31.57527 | 28097 ft | 426 kts | 292° |
| 2026-05-06 20:49 | 40.66405 | 31.50132 | 28088 ft | 427 kts | 292° |
| 2026-05-06 20:50 | 40.68227 | 31.42701 | 28098 ft | 427 kts | 292° |
| 2026-05-06 20:50 | 40.70047 | 31.35255 | 28095 ft | 427 kts | 292° |
| 2026-05-06 20:51 | 40.71864 | 31.27794 | 28086 ft | 428 kts | 291° |
| 2026-05-06 20:51 | 40.73680 | 31.20309 | 28085 ft | 430 kts | 291° |
| 2026-05-06 20:52 | 40.75488 | 31.12841 | 28085 ft | 430 kts | 291° |
| 2026-05-06 20:52 | 40.77302 | 31.05325 | 28092 ft | 430 kts | 291° |
| 2026-05-06 20:53 | 40.79105 | 30.97833 | 28075 ft | 430 kts | 291° |
| 2026-05-06 20:53 | 40.80904 | 30.90322 | 28080 ft | 430 kts | 291° |
| 2026-05-06 20:54 | 40.82695 | 30.82825 | 28074 ft | 429 kts | 291° |
| 2026-05-06 20:54 | 40.84482 | 30.75321 | 28077 ft | 429 kts | 291° |
| 2026-05-06 20:55 | 40.86575 | 30.67979 | 28063 ft | 425 kts | 300° |
| 2026-05-06 20:55 | 40.89799 | 30.61565 | 28074 ft | 420 kts | 312° |
| 2026-05-06 20:56 | 40.93588 | 30.55691 | 28066 ft | 421 kts | 314° |
| 2026-05-06 20:56 | 40.97406 | 30.49812 | 28058 ft | 422 kts | 313° |
| 2026-05-06 20:56 | 40.99317 | 30.46870 | 27457 ft | 421 kts | 314° |
| 2026-05-06 20:57 | 41.01204 | 30.43993 | 26846 ft | 417 kts | 314° |
| 2026-05-06 20:57 | 41.03102 | 30.41104 | 26276 ft | 412 kts | 314° |
| 2026-05-06 20:57 | 41.04961 | 30.38269 | 25725 ft | 407 kts | 314° |
| 2026-05-06 20:57 | 41.06797 | 30.35464 | 25264 ft | 400 kts | 314° |
| 2026-05-06 20:58 | 41.08594 | 30.32712 | 25045 ft | 387 kts | 313° |
| 2026-05-06 20:58 | 41.10341 | 30.30037 | 24981 ft | 383 kts | 313° |
| 2026-05-06 20:58 | 41.12093 | 30.27356 | 25004 ft | 386 kts | 313° |
| 2026-05-06 20:58 | 41.13854 | 30.24657 | 25022 ft | 387 kts | 313° |
| 2026-05-06 20:59 | 41.15604 | 30.21967 | 25036 ft | 387 kts | 313° |
| 2026-05-06 20:59 | 41.17389 | 30.19237 | 24777 ft | 388 kts | 314° |
| 2026-05-06 20:59 | 41.19316 | 30.16760 | 24170 ft | 385 kts | 322° |
| 2026-05-06 20:59 | 41.21421 | 30.14703 | 23872 ft | 376 kts | 329° |
| 2026-05-06 21:00 | 41.23690 | 30.12950 | 23861 ft | 377 kts | 333° |
| 2026-05-06 21:00 | 41.25979 | 30.11288 | 23404 ft | 377 kts | 333° |
| 2026-05-06 21:00 | 41.28213 | 30.09435 | 22828 ft | 378 kts | 321° |
| 2026-05-06 21:00 | 41.29789 | 30.06688 | 22200 ft | 384 kts | 298° |
| 2026-05-06 21:01 | 41.30556 | 30.03256 | 21520 ft | 391 kts | 280° |
| 2026-05-06 21:01 | 41.30483 | 29.99694 | 20846 ft | 393 kts | 262° |
| 2026-05-06 21:01 | 41.29562 | 29.96274 | 20254 ft | 393 kts | 243° |
| 2026-05-06 21:01 | 41.27936 | 29.93423 | 19737 ft | 390 kts | 229° |
| 2026-05-06 21:02 | 41.26101 | 29.90816 | 19234 ft | 384 kts | 229° |
| 2026-05-06 21:02 | 41.24284 | 29.88259 | 18763 ft | 380 kts | 229° |
| 2026-05-06 21:02 | 41.22480 | 29.85703 | 18271 ft | 378 kts | 229° |
| 2026-05-06 21:02 | 41.20702 | 29.83165 | 17817 ft | 375 kts | 229° |
| 2026-05-06 21:03 | 41.18938 | 29.80632 | 17366 ft | 372 kts | 229° |
| 2026-05-06 21:03 | 41.17204 | 29.78137 | 16905 ft | 368 kts | 230° |
| 2026-05-06 21:03 | 41.15475 | 29.75647 | 16437 ft | 365 kts | 230° |
| 2026-05-06 21:03 | 41.13770 | 29.73191 | 15998 ft | 363 kts | 230° |
| 2026-05-06 21:04 | 41.12060 | 29.70729 | 15526 ft | 360 kts | 230° |
| 2026-05-06 21:04 | 41.10380 | 29.68308 | 15049 ft | 357 kts | 230° |
| 2026-05-06 21:04 | 41.08707 | 29.65904 | 14577 ft | 354 kts | 230° |
| 2026-05-06 21:04 | 41.07042 | 29.63511 | 14118 ft | 352 kts | 230° |
| 2026-05-06 21:05 | 41.05402 | 29.61153 | 13668 ft | 349 kts | 230° |
| 2026-05-06 21:05 | 41.03753 | 29.58785 | 13196 ft | 346 kts | 230° |
| 2026-05-06 21:05 | 41.02145 | 29.56481 | 12743 ft | 344 kts | 230° |
| 2026-05-06 21:05 | 41.00529 | 29.54167 | 12285 ft | 341 kts | 230° |
| 2026-05-06 21:06 | 40.98838 | 29.51967 | 11809 ft | 341 kts | 219° |
| 2026-05-06 21:06 | 40.96674 | 29.50757 | 11326 ft | 344 kts | 191° |
| 2026-05-06 21:06 | 40.94298 | 29.50775 | 10918 ft | 342 kts | 176° |
| 2026-05-06 21:06 | 40.91917 | 29.50659 | 10412 ft | 338 kts | 196° |
| 2026-05-06 21:07 | 40.89894 | 29.49266 | 9956 ft | 329 kts | 225° |
| 2026-05-06 21:07 | 40.88664 | 29.46793 | 9796 ft | 319 kts | 255° |
| 2026-05-06 21:07 | 40.88383 | 29.43930 | 9823 ft | 315 kts | 277° |
| 2026-05-06 21:07 | 40.88620 | 29.41088 | 9854 ft | 315 kts | 280° |
| 2026-05-06 21:08 | 40.88866 | 29.38258 | 9929 ft | 302 kts | 279° |
| 2026-05-06 21:08 | 40.89066 | 29.35586 | 9932 ft | 285 kts | 278° |
| 2026-05-06 21:08 | 40.89241 | 29.32984 | 9594 ft | 282 kts | 277° |
| 2026-05-06 21:08 | 40.89404 | 29.30423 | 9202 ft | 281 kts | 277° |
| 2026-05-06 21:09 | 40.89559 | 29.27888 | 8830 ft | 279 kts | 277° |
| 2026-05-06 21:09 | 40.89711 | 29.25347 | 8469 ft | 276 kts | 277° |
| 2026-05-06 21:09 | 40.89861 | 29.22837 | 8119 ft | 273 kts | 278° |
| 2026-05-06 21:09 | 40.90008 | 29.20350 | 7774 ft | 270 kts | 278° |
| 2026-05-06 21:10 | 40.90153 | 29.17898 | 7435 ft | 266 kts | 278° |
| 2026-05-06 21:10 | 40.90294 | 29.15487 | 7101 ft | 263 kts | 278° |
| 2026-05-06 21:10 | 40.90435 | 29.13082 | 6761 ft | 260 kts | 278° |
| 2026-05-06 21:10 | 40.90575 | 29.10724 | 6425 ft | 257 kts | 278° |
| 2026-05-06 21:11 | 40.90712 | 29.08380 | 6091 ft | 254 kts | 278° |
| 2026-05-06 21:11 | 40.90845 | 29.06091 | 5873 ft | 248 kts | 277° |
| 2026-05-06 21:11 | 40.90974 | 29.03844 | 5786 ft | 242 kts | 277° |
| 2026-05-06 21:11 | 40.91101 | 29.01632 | 5690 ft | 240 kts | 278° |
| 2026-05-06 21:12 | 40.91264 | 28.99486 | 5462 ft | 234 kts | 279° |
| 2026-05-06 21:12 | 40.91454 | 28.97343 | 5148 ft | 232 kts | 280° |
| 2026-05-06 21:12 | 40.91642 | 28.95249 | 4847 ft | 230 kts | 279° |
| 2026-05-06 21:12 | 40.91827 | 28.93174 | 4558 ft | 227 kts | 279° |
| 2026-05-06 21:13 | 40.92008 | 28.91117 | 4268 ft | 225 kts | 279° |
| 2026-05-06 21:13 | 40.92188 | 28.89074 | 4021 ft | 221 kts | 279° |
| 2026-05-06 21:13 | 40.92366 | 28.87034 | 3987 ft | 223 kts | 279° |
| 2026-05-06 21:13 | 40.92541 | 28.85021 | 3986 ft | 222 kts | 278° |
| 2026-05-06 21:14 | 40.92717 | 28.82994 | 3982 ft | 222 kts | 278° |
| 2026-05-06 21:14 | 40.92906 | 28.80965 | 3978 ft | 222 kts | 283° |
| 2026-05-06 21:14 | 40.93586 | 28.79182 | 3957 ft | 219 kts | 317° |
| 2026-05-06 21:14 | 40.94854 | 28.78088 | 3994 ft | 219 kts | 330° |
| 2026-05-06 21:15 | 40.96195 | 28.77106 | 3986 ft | 219 kts | 334° |
| 2026-05-06 21:15 | 40.97601 | 28.76459 | 3971 ft | 211 kts | 347° |
| 2026-05-06 21:15 | 40.99052 | 28.76204 | 3979 ft | 211 kts | 354° |
| 2026-05-06 21:15 | 41.00529 | 28.76130 | 3983 ft | 211 kts | 357° |
| 2026-05-06 21:16 | 41.01995 | 28.76105 | 3984 ft | 211 kts | 358° |
| 2026-05-06 21:16 | 41.03442 | 28.76087 | 3973 ft | 201 kts | 358° |
| 2026-05-06 21:16 | 41.04829 | 28.76067 | 3972 ft | 196 kts | 357° |
| 2026-05-06 21:16 | 41.06186 | 28.76044 | 3979 ft | 196 kts | 357° |
| 2026-05-06 21:17 | 41.07505 | 28.76021 | 4007 ft | 182 kts | 357° |
| 2026-05-06 21:17 | 41.08749 | 28.75999 | 3766 ft | 175 kts | 357° |
| 2026-05-06 21:17 | 41.09947 | 28.75978 | 3521 ft | 169 kts | 357° |
| 2026-05-06 21:17 | 41.11092 | 28.75956 | 3288 ft | 162 kts | 357° |
| 2026-05-06 21:18 | 41.12194 | 28.75936 | 3064 ft | 156 kts | 357° |
| 2026-05-06 21:18 | 41.13260 | 28.75915 | 2849 ft | 148 kts | 358° |
| 2026-05-06 21:18 | 41.14261 | 28.75896 | 2691 ft | 139 kts | 358° |
| 2026-05-06 21:18 | 41.15208 | 28.75877 | 2504 ft | 136 kts | 358° |
| 2026-05-06 21:19 | 41.16152 | 28.75858 | 2327 ft | 135 kts | 359° |
| 2026-05-06 21:19 | 41.17088 | 28.75839 | 2148 ft | 134 kts | 360° |
| 2026-05-06 21:19 | 41.18018 | 28.75821 | 1972 ft | 134 kts | 0° |
| 2026-05-06 21:19 | 41.18956 | 28.75804 | 1787 ft | 133 kts | 0° |
| 2026-05-06 21:20 | 41.19881 | 28.75787 | 1607 ft | 133 kts | 0° |
| 2026-05-06 21:20 | 41.20803 | 28.75770 | 1427 ft | 133 kts | 0° |
| 2026-05-06 21:20 | 41.21735 | 28.75753 | 1243 ft | 132 kts | 0° |
| 2026-05-06 21:20 | 41.22652 | 28.75736 | 1064 ft | 132 kts | 0° |
| 2026-05-06 21:21 | 41.23570 | 28.75717 | 888 ft | 131 kts | 1° |
| 2026-05-06 21:21 | 41.24478 | 28.75699 | 713 ft | 131 kts | 1° |
| 2026-05-06 21:21 | 41.25396 | 28.75684 | 532 ft | 130 kts | 2° |
| 2026-05-06 21:21 | 41.26291 | 28.75678 | 389 ft | 128 kts | 360° |
| 2026-05-06 21:22 | 41.27159 | 28.75662 | 334 ft | 112 kts | 358° |
| 2026-05-06 21:22 | 41.27766 | 28.75645 | 334 ft | 62 kts | 360° |
| 2026-05-06 21:22 | 41.28041 | 28.75639 | 334 ft | 24 kts | 359° |
| 2026-05-06 21:22 | 41.28205 | 28.75618 | 334 ft | 23 kts | 345° |
| 2026-05-06 21:23 | 41.28346 | 28.75539 | 334 ft | 19 kts | 333° |
| 2026-05-06 21:23 | 41.28421 | 28.75478 | 334 ft | 8 kts | 314° |
| 2026-05-06 21:23 | 41.28440 | 28.75399 | 334 ft | 9 kts | 256° |
| 2026-05-06 21:23 | 41.28386 | 28.75345 | 334 ft | 10 kts | 188° |
| 2026-05-06 21:24 | 41.28307 | 28.75347 | 334 ft | 11 kts | 176° |
| 2026-05-06 21:24 | 41.28221 | 28.75353 | 334 ft | 12 kts | 180° |
| 2026-05-06 21:24 | 41.28130 | 28.75353 | 334 ft | 13 kts | 180° |
| 2026-05-06 21:24 | 41.28032 | 28.75353 | 334 ft | 14 kts | 179° |
| 2026-05-06 21:25 | 41.27932 | 28.75356 | 334 ft | 14 kts | 178° |
| 2026-05-06 21:25 | 41.27826 | 28.75361 | 334 ft | 15 kts | 179° |
| 2026-05-06 21:25 | 41.27716 | 28.75356 | 334 ft | 15 kts | 182° |
| 2026-05-06 21:25 | 41.27604 | 28.75356 | 334 ft | 16 kts | 179° |
| 2026-05-06 21:26 | 41.27489 | 28.75360 | 334 ft | 16 kts | 179° |
| 2026-05-06 21:26 | 41.27372 | 28.75363 | 334 ft | 17 kts | 179° |
| 2026-05-06 21:26 | 41.27251 | 28.75366 | 334 ft | 17 kts | 179° |
| 2026-05-06 21:26 | 41.27164 | 28.75353 | 334 ft | 10 kts | 210° |
| 2026-05-06 21:27 | 41.27142 | 28.75260 | 334 ft | 11 kts | 269° |
| 2026-05-06 21:27 | 41.27126 | 28.75158 | 334 ft | 11 kts | 223° |
| 2026-05-06 21:27 | 41.27052 | 28.75120 | 334 ft | 11 kts | 175° |
| 2026-05-06 21:27 | 41.26967 | 28.75143 | 334 ft | 12 kts | 170° |
| 2026-05-06 21:28 | 41.26876 | 28.75147 | 334 ft | 13 kts | 179° |
| 2026-05-06 21:28 | 41.26780 | 28.75149 | 334 ft | 14 kts | 179° |
| 2026-05-06 21:28 | 41.26678 | 28.75153 | 334 ft | 14 kts | 181° |
| 2026-05-06 21:28 | 41.26576 | 28.75125 | 334 ft | 15 kts | 199° |
| 2026-05-06 21:29 | 41.26472 | 28.75082 | 334 ft | 15 kts | 197° |
| 2026-05-06 21:29 | 41.26365 | 28.75039 | 334 ft | 16 kts | 197° |
| 2026-05-06 21:29 | 41.26255 | 28.74993 | 334 ft | 16 kts | 198° |
| 2026-05-06 21:29 | 41.26165 | 28.74981 | 334 ft | 8 kts | 200° |
| 2026-05-06 21:30 | 41.26141 | 28.74933 | 334 ft | 6 kts | 243° |
| 2026-05-06 21:30 | 41.26125 | 28.74877 | 334 ft | 4 kts | 250° |
| 2026-05-06 21:30 | 41.26122 | 28.74866 | 334 ft | 0 kts | 250° |